Pagina principale
METAR-TAF:

METAR-TAF

Aeroporti :

Aeroporto di Győr-Pér

Győr, Ungheria

latitudine: 47-37-28N, longitudine: 017-48-49E, altezza: 129 m

Osservazione

Il bollettino è stato emesso 28 minuti fa, alle 02:45 UTC
Vento 7 kt da sud-est
Temperature 13°C
Umidità 82%
Pressione 1012 hPa
Visibilità 10 km o più
nessuna nube inferiore a 1500 m e nessun cumulonembo

METAR: LHPR 160245Z AUTO 14007KT CAVOK 13/10 Q1012

Ora: 05:13 (03:13 UTC)

Previsione

Il bollettino è stato emesso 9 ore e 58 minuti fa, alle 17:15 UTC
Previsione valida dal 15 alle 18 UTC al 16 alle 03 UTC
Vento 9 kt da sud/sud-est
Visibilità 10 km o più
nessuna nube inferiore a 1500 m e nessun cumulonembo

TAF: LHPR 151715Z 1518/1603 16009KT CAVOK

Osservazioni e previsioni meteorologiche di più di 4000 aeroporti (messaggi METAR e TAF).

Le stazioni disponibili sono rappresentate dai dischi gialli e rossi sulla carta.

Puntare il mouse per vedere il nome della stazione.

Clicca sopra per visualizzare le osservazioni e previsioni meteorologiche.

Per cambiare la mappa : fare clic sui pulsanti verdi con una croce nera per ingrandire, il pulsante verde con un trattino per diminuire, o sulla freccia verde per le mappe adiacenti.


METAR-TAF: